sensor_id;sensor_type;location;lat;lon;timestamp;pressure;altitude;pressure_sealevel;temperature;humidity
54194;BME280;40102;50.906;6.972;2023-06-10T00:00:13;100708.47;;;23.80;48.40
54194;BME280;40102;50.906;6.972;2023-06-10T00:02:40;100702.50;;;23.76;48.68
54194;BME280;40102;50.906;6.972;2023-06-10T00:05:06;100705.41;;;23.75;48.41
54194;BME280;40102;50.906;6.972;2023-06-10T00:07:33;100704.53;;;23.74;48.58
54194;BME280;40102;50.906;6.972;2023-06-10T00:09:58;100705.75;;;23.72;48.87
54194;BME280;40102;50.906;6.972;2023-06-10T00:12:24;100699.25;;;23.73;48.77
54194;BME280;40102;50.906;6.972;2023-06-10T00:14:49;100697.53;;;23.72;48.90
54194;BME280;40102;50.906;6.972;2023-06-10T00:17:17;100698.06;;;23.67;48.90
54194;BME280;40102;50.906;6.972;2023-06-10T00:19:42;100697.03;;;23.68;49.00
54194;BME280;40102;50.906;6.972;2023-06-10T00:22:08;100700.28;;;23.64;48.84
54194;BME280;40102;50.906;6.972;2023-06-10T00:24:35;100693.28;;;23.61;48.77
54194;BME280;40102;50.906;6.972;2023-06-10T00:27:01;100692.25;;;23.54;48.83
54194;BME280;40102;50.906;6.972;2023-06-10T00:29:26;100697.38;;;23.57;48.86
54194;BME280;40102;50.906;6.972;2023-06-10T00:31:51;100697.53;;;23.55;49.33
54194;BME280;40102;50.906;6.972;2023-06-10T00:34:18;100694.44;;;23.50;49.26
54194;BME280;40102;50.906;6.972;2023-06-10T00:36:44;100699.03;;;23.50;49.31
54194;BME280;40102;50.906;6.972;2023-06-10T00:39:09;100702.63;;;23.50;49.79
54194;BME280;40102;50.906;6.972;2023-06-10T00:41:34;100701.78;;;23.50;49.78
54194;BME280;40102;50.906;6.972;2023-06-10T00:44:00;100703.81;;;23.48;49.92
54194;BME280;40102;50.906;6.972;2023-06-10T00:46:25;100699.88;;;23.42;49.85
54194;BME280;40102;50.906;6.972;2023-06-10T00:48:52;100700.22;;;23.39;50.04
54194;BME280;40102;50.906;6.972;2023-06-10T00:51:18;100710.97;;;23.41;49.96
54194;BME280;40102;50.906;6.972;2023-06-10T00:53:44;100703.63;;;23.41;50.22
54194;BME280;40102;50.906;6.972;2023-06-10T00:56:10;100702.09;;;23.39;50.31
54194;BME280;40102;50.906;6.972;2023-06-10T00:58:36;100704.31;;;23.35;50.61
54194;BME280;40102;50.906;6.972;2023-06-10T01:01:01;100709.41;;;23.30;50.48
54194;BME280;40102;50.906;6.972;2023-06-10T01:03:27;100717.06;;;23.18;51.13
54194;BME280;40102;50.906;6.972;2023-06-10T01:06:23;100710.06;;;23.16;50.83
54194;BME280;40102;50.906;6.972;2023-06-10T01:09:02;100705.81;;;23.13;51.07
54194;BME280;40102;50.906;6.972;2023-06-10T01:11:49;100705.63;;;23.15;51.37
54194;BME280;40102;50.906;6.972;2023-06-10T01:14:18;100708.38;;;23.15;50.90
54194;BME280;40102;50.906;6.972;2023-06-10T01:16:43;100707.34;;;23.16;51.45
54194;BME280;40102;50.906;6.972;2023-06-10T01:19:11;100703.94;;;23.14;51.50
54194;BME280;40102;50.906;6.972;2023-06-10T01:21:38;100715.00;;;23.12;51.22
54194;BME280;40102;50.906;6.972;2023-06-10T01:24:05;100713.47;;;23.10;51.80
54194;BME280;40102;50.906;6.972;2023-06-10T01:26:34;100702.53;;;23.02;51.82
54194;BME280;40102;50.906;6.972;2023-06-10T01:29:06;100715.16;;;23.03;51.98
54194;BME280;40102;50.906;6.972;2023-06-10T01:31:48;100710.88;;;23.00;52.07
54194;BME280;40102;50.906;6.972;2023-06-10T01:34:17;100702.69;;;23.00;52.11
54194;BME280;40102;50.906;6.972;2023-06-10T01:36:46;100715.31;;;23.01;52.12
54194;BME280;40102;50.906;6.972;2023-06-10T01:39:14;100707.31;;;23.00;52.13
54194;BME280;40102;50.906;6.972;2023-06-10T01:41:40;100711.03;;;22.99;51.92
54194;BME280;40102;50.906;6.972;2023-06-10T01:44:06;100705.22;;;22.93;52.23
54194;BME280;40102;50.906;6.972;2023-06-10T01:46:31;100710.84;;;22.92;52.18
54194;BME280;40102;50.906;6.972;2023-06-10T01:48:56;100705.41;;;22.92;52.25
54194;BME280;40102;50.906;6.972;2023-06-10T01:51:22;100710.00;;;22.91;52.21
54194;BME280;40102;50.906;6.972;2023-06-10T01:53:47;100713.06;;;22.88;52.20
54194;BME280;40102;50.906;6.972;2023-06-10T01:56:12;100713.22;;;22.87;52.80
54194;BME280;40102;50.906;6.972;2023-06-10T01:58:43;100707.41;;;22.82;52.80
54194;BME280;40102;50.906;6.972;2023-06-10T02:01:09;100707.66;;;22.71;52.68
54194;BME280;40102;50.906;6.972;2023-06-10T02:03:34;100715.78;;;22.54;53.13
54194;BME280;40102;50.906;6.972;2023-06-10T02:05:59;100717.19;;;22.33;54.25
54194;BME280;40102;50.906;6.972;2023-06-10T02:08:25;100708.28;;;22.22;54.69
54194;BME280;40102;50.906;6.972;2023-06-10T02:10:52;100708.28;;;22.22;54.68
54194;BME280;40102;50.906;6.972;2023-06-10T02:13:18;100720.41;;;22.28;54.49
54194;BME280;40102;50.906;6.972;2023-06-10T02:15:43;100721.28;;;22.37;53.96
54194;BME280;40102;50.906;6.972;2023-06-10T02:18:08;100712.97;;;22.38;53.89
54194;BME280;40102;50.906;6.972;2023-06-10T02:20:35;100711.28;;;22.45;53.81
54194;BME280;40102;50.906;6.972;2023-06-10T02:23:00;100729.56;;;22.53;53.68
54194;BME280;40102;50.906;6.972;2023-06-10T02:25:25;100717.47;;;22.55;53.59
54194;BME280;40102;50.906;6.972;2023-06-10T02:27:51;100727.38;;;22.56;53.67
54194;BME280;40102;50.906;6.972;2023-06-10T02:30:16;100725.50;;;22.57;53.44
54194;BME280;40102;50.906;6.972;2023-06-10T02:32:41;100722.94;;;22.55;53.44
54194;BME280;40102;50.906;6.972;2023-06-10T02:35:07;100731.81;;;22.57;53.30
54194;BME280;40102;50.906;6.972;2023-06-10T02:37:32;100727.53;;;22.55;53.45
54194;BME280;40102;50.906;6.972;2023-06-10T02:39:57;100731.28;;;22.54;53.48
54194;BME280;40102;50.906;6.972;2023-06-10T02:42:23;100714.38;;;22.50;53.66
54194;BME280;40102;50.906;6.972;2023-06-10T02:44:48;100731.13;;;22.55;53.49
54194;BME280;40102;50.906;6.972;2023-06-10T02:47:13;100734.16;;;22.52;53.69
54194;BME280;40102;50.906;6.972;2023-06-10T02:49:39;100729.56;;;22.53;53.29
54194;BME280;40102;50.906;6.972;2023-06-10T02:52:05;100720.31;;;22.46;53.65
54194;BME280;40102;50.906;6.972;2023-06-10T02:54:32;100730.22;;;22.47;53.37
54194;BME280;40102;50.906;6.972;2023-06-10T02:56:57;100734.66;;;22.48;53.46
54194;BME280;40102;50.906;6.972;2023-06-10T02:59:22;100730.53;;;22.44;53.45
54194;BME280;40102;50.906;6.972;2023-06-10T03:01:48;100727.97;;;22.42;53.99
54194;BME280;40102;50.906;6.972;2023-06-10T03:04:13;100730.16;;;22.39;54.05
54194;BME280;40102;50.906;6.972;2023-06-10T03:06:39;100738.34;;;22.39;53.45
54194;BME280;40102;50.906;6.972;2023-06-10T03:09:06;100735.94;;;22.36;53.58
54194;BME280;40102;50.906;6.972;2023-06-10T03:11:32;100735.09;;;22.35;53.72
54194;BME280;40102;50.906;6.972;2023-06-10T03:13:58;100728.25;;;22.31;53.93
54194;BME280;40102;50.906;6.972;2023-06-10T03:16:23;100726.38;;;22.32;54.24
54194;BME280;40102;50.906;6.972;2023-06-10T03:18:50;100733.84;;;22.29;54.06
54194;BME280;40102;50.906;6.972;2023-06-10T03:21:16;100741.72;;;22.33;54.32
54194;BME280;40102;50.906;6.972;2023-06-10T03:23:41;100743.25;;;22.35;53.54
54194;BME280;40102;50.906;6.972;2023-06-10T03:26:06;100740.69;;;22.34;53.71
54194;BME280;40102;50.906;6.972;2023-06-10T03:28:32;100746.16;;;22.34;53.71
54194;BME280;40102;50.906;6.972;2023-06-10T03:30:58;100751.59;;;22.34;54.00
54194;BME280;40102;50.906;6.972;2023-06-10T03:33:23;100749.88;;;22.33;53.94
54194;BME280;40102;50.906;6.972;2023-06-10T03:35:49;100746.16;;;22.34;54.01
54194;BME280;40102;50.906;6.972;2023-06-10T03:38:14;100747.31;;;22.31;54.22
54194;BME280;40102;50.906;6.972;2023-06-10T03:40:39;100751.06;;;22.30;54.14
54194;BME280;40102;50.906;6.972;2023-06-10T03:43:05;100758.00;;;22.24;54.23
54194;BME280;40102;50.906;6.972;2023-06-10T03:45:30;100747.41;;;22.21;54.46
54194;BME280;40102;50.906;6.972;2023-06-10T03:47:57;100754.03;;;22.19;53.67
54194;BME280;40102;50.906;6.972;2023-06-10T03:50:23;100752.34;;;22.18;53.85
54194;BME280;40102;50.906;6.972;2023-06-10T03:52:49;100749.56;;;22.10;54.18
54194;BME280;40102;50.906;6.972;2023-06-10T03:55:15;100753.94;;;22.03;54.18
54194;BME280;40102;50.906;6.972;2023-06-10T03:57:42;100748.91;;;21.98;54.19
54194;BME280;40102;50.906;6.972;2023-06-10T04:00:08;100751.03;;;21.86;53.16
54194;BME280;40102;50.906;6.972;2023-06-10T04:02:36;100756.88;;;21.74;53.45
54194;BME280;40102;50.906;6.972;2023-06-10T04:05:02;100751.06;;;21.69;54.39
54194;BME280;40102;50.906;6.972;2023-06-10T04:07:27;100754.31;;;21.72;54.71
54194;BME280;40102;50.906;6.972;2023-06-10T04:09:53;100749.03;;;21.71;55.01
54194;BME280;40102;50.906;6.972;2023-06-10T04:12:19;100757.44;;;21.77;54.80
54194;BME280;40102;50.906;6.972;2023-06-10T04:14:44;100768.84;;;21.81;54.89
54194;BME280;40102;50.906;6.972;2023-06-10T04:17:09;100758.28;;;21.78;55.50
54194;BME280;40102;50.906;6.972;2023-06-10T04:19:35;100760.84;;;21.79;55.40
54194;BME280;40102;50.906;6.972;2023-06-10T04:22:01;100763.25;;;21.82;55.03
54194;BME280;40102;50.906;6.972;2023-06-10T04:24:27;100760.00;;;21.79;55.49
54194;BME280;40102;50.906;6.972;2023-06-10T04:26:52;100762.31;;;21.74;55.82
54194;BME280;40102;50.906;6.972;2023-06-10T04:29:17;100769.63;;;21.73;55.92
54194;BME280;40102;50.906;6.972;2023-06-10T04:31:42;100771.81;;;21.70;55.51
54194;BME280;40102;50.906;6.972;2023-06-10T04:34:08;100771.75;;;21.61;56.03
54194;BME280;40102;50.906;6.972;2023-06-10T04:36:33;100779.50;;;21.56;55.73
54194;BME280;40102;50.906;6.972;2023-06-10T04:38:58;100775.38;;;21.52;56.02
54194;BME280;40102;50.906;6.972;2023-06-10T04:41:24;100772.59;;;21.44;56.79
54194;BME280;40102;50.906;6.972;2023-06-10T04:43:51;100768.47;;;21.40;56.85
54194;BME280;40102;50.906;6.972;2023-06-10T04:46:16;100759.28;;;21.41;56.81
54194;BME280;40102;50.906;6.972;2023-06-10T04:48:42;100766.91;;;21.55;56.62
54194;BME280;40102;50.906;6.972;2023-06-10T04:51:07;100780.75;;;21.62;56.57
54194;BME280;40102;50.906;6.972;2023-06-10T04:53:32;100758.06;;;21.53;56.72
54194;BME280;40102;50.906;6.972;2023-06-10T04:55:58;100769.88;;;21.62;56.56
54194;BME280;40102;50.906;6.972;2023-06-10T04:58:23;100756.41;;;21.60;56.30
54194;BME280;40102;50.906;6.972;2023-06-10T05:00:49;100757.97;;;21.63;56.18
54194;BME280;40102;50.906;6.972;2023-06-10T05:03:14;100774.69;;;21.68;55.90
54194;BME280;40102;50.906;6.972;2023-06-10T05:05:40;100753.53;;;21.44;55.74
54194;BME280;40102;50.906;6.972;2023-06-10T05:08:05;100747.31;;;21.34;56.13
54194;BME280;40102;50.906;6.972;2023-06-10T05:10:30;100768.31;;;21.42;56.84
54194;BME280;40102;50.906;6.972;2023-06-10T05:12:57;100776.63;;;21.40;56.92
54194;BME280;40102;50.906;6.972;2023-06-10T05:15:26;100781.34;;;21.38;57.07
54194;BME280;40102;50.906;6.972;2023-06-10T05:17:51;100779.34;;;21.40;57.23
54194;BME280;40102;50.906;6.972;2023-06-10T05:20:17;100779.13;;;21.51;56.95
54194;BME280;40102;50.906;6.972;2023-06-10T05:22:43;100760.06;;;21.51;56.48
54194;BME280;40102;50.906;6.972;2023-06-10T05:25:09;100783.72;;;21.69;56.41
54194;BME280;40102;50.906;6.972;2023-06-10T05:27:35;100774.78;;;21.76;56.53
54194;BME280;40102;50.906;6.972;2023-06-10T05:30:01;100775.00;;;21.83;56.02
54194;BME280;40102;50.906;6.972;2023-06-10T05:32:27;100779.28;;;21.85;56.01
54194;BME280;40102;50.906;6.972;2023-06-10T05:34:52;100783.09;;;21.92;55.93
54194;BME280;40102;50.906;6.972;2023-06-10T05:37:18;100774.38;;;21.89;55.75
54194;BME280;40102;50.906;6.972;2023-06-10T05:39:43;100770.63;;;21.90;55.82
54194;BME280;40102;50.906;6.972;2023-06-10T05:42:09;100776.63;;;21.93;55.54
54194;BME280;40102;50.906;6.972;2023-06-10T05:44:35;100780.59;;;21.99;55.74
54194;BME280;40102;50.906;6.972;2023-06-10T05:47:00;100782.44;;;21.98;55.37
54194;BME280;40102;50.906;6.972;2023-06-10T05:49:27;100776.09;;;21.90;55.24
54194;BME280;40102;50.906;6.972;2023-06-10T05:51:52;100774.16;;;21.82;55.46
54194;BME280;40102;50.906;6.972;2023-06-10T05:54:18;100791.41;;;21.91;55.41
54194;BME280;40102;50.906;6.972;2023-06-10T05:56:43;100786.97;;;21.90;55.69
54194;BME280;40102;50.906;6.972;2023-06-10T05:59:09;100784.56;;;21.87;55.96
54194;BME280;40102;50.906;6.972;2023-06-10T06:01:34;100789.22;;;21.94;55.94
54194;BME280;40102;50.906;6.972;2023-06-10T06:04:00;100789.06;;;21.96;55.77
54194;BME280;40102;50.906;6.972;2023-06-10T06:06:25;100787.47;;;22.03;56.47
54194;BME280;40102;50.906;6.972;2023-06-10T06:08:50;100791.50;;;22.17;56.62
54194;BME280;40102;50.906;6.972;2023-06-10T06:11:19;100790.38;;;22.27;55.48
54194;BME280;40102;50.906;6.972;2023-06-10T06:13:44;100789.59;;;22.35;54.62
54194;BME280;40102;50.906;6.972;2023-06-10T06:16:10;100791.66;;;22.41;54.59
54194;BME280;40102;50.906;6.972;2023-06-10T06:18:35;100790.50;;;22.44;53.67
54194;BME280;40102;50.906;6.972;2023-06-10T06:21:01;100788.84;;;22.51;53.89
54194;BME280;40102;50.906;6.972;2023-06-10T06:23:26;100791.94;;;22.56;53.16
54194;BME280;40102;50.906;6.972;2023-06-10T06:25:51;100798.59;;;22.61;53.13
54194;BME280;40102;50.906;6.972;2023-06-10T06:28:17;100788.56;;;22.62;52.69
54194;BME280;40102;50.906;6.972;2023-06-10T06:30:44;100787.06;;;22.68;52.40
54194;BME280;40102;50.906;6.972;2023-06-10T06:33:09;100780.91;;;22.66;52.14
54194;BME280;40102;50.906;6.972;2023-06-10T06:35:35;100792.66;;;22.66;51.90
54194;BME280;40102;50.906;6.972;2023-06-10T06:38:00;100804.59;;;22.65;51.75
54194;BME280;40102;50.906;6.972;2023-06-10T06:40:26;100793.00;;;22.63;51.52
54194;BME280;40102;50.906;6.972;2023-06-10T06:42:51;100800.66;;;22.59;51.77
54194;BME280;40102;50.906;6.972;2023-06-10T06:45:16;100808.28;;;22.56;51.57
54194;BME280;40102;50.906;6.972;2023-06-10T06:47:42;100811.72;;;22.58;51.60
54194;BME280;40102;50.906;6.972;2023-06-10T06:50:09;100810.09;;;22.47;51.75
54194;BME280;40102;50.906;6.972;2023-06-10T06:52:34;100800.00;;;22.40;51.04
54194;BME280;40102;50.906;6.972;2023-06-10T06:55:00;100806.09;;;22.34;50.86
54194;BME280;40102;50.906;6.972;2023-06-10T06:57:25;100792.34;;;22.17;50.83
54194;BME280;40102;50.906;6.972;2023-06-10T06:59:50;100795.16;;;22.08;51.11
54194;BME280;40102;50.906;6.972;2023-06-10T07:02:16;100795.91;;;22.00;51.99
54194;BME280;40102;50.906;6.972;2023-06-10T07:04:41;100806.09;;;21.98;51.42
54194;BME280;40102;50.906;6.972;2023-06-10T07:07:07;100808.84;;;21.98;51.46
54194;BME280;40102;50.906;6.972;2023-06-10T07:09:36;100801.53;;;21.98;52.56
54194;BME280;40102;50.906;6.972;2023-06-10T07:12:02;100801.53;;;21.98;53.24
54194;BME280;40102;50.906;6.972;2023-06-10T07:14:27;100801.19;;;22.02;52.63
54194;BME280;40102;50.906;6.972;2023-06-10T07:16:53;100803.50;;;22.06;52.06
54194;BME280;40102;50.906;6.972;2023-06-10T07:19:18;100807.69;;;22.18;52.13
54194;BME280;40102;50.906;6.972;2023-06-10T07:21:43;100803.31;;;22.25;52.14
54194;BME280;40102;50.906;6.972;2023-06-10T07:24:09;100808.50;;;22.37;51.91
54194;BME280;40102;50.906;6.972;2023-06-10T07:26:34;100812.13;;;22.45;51.44
54194;BME280;40102;50.906;6.972;2023-06-10T07:29:00;100798.72;;;22.52;51.24
54194;BME280;40102;50.906;6.972;2023-06-10T07:31:25;100803.53;;;22.58;51.49
54194;BME280;40102;50.906;6.972;2023-06-10T07:33:51;100806.47;;;22.65;51.43
54194;BME280;40102;50.906;6.972;2023-06-10T07:36:16;100807.00;;;22.68;50.04
54194;BME280;40102;50.906;6.972;2023-06-10T07:38:42;100805.28;;;22.67;49.65
54194;BME280;40102;50.906;6.972;2023-06-10T07:41:08;100807.22;;;22.75;49.36
54194;BME280;40102;50.906;6.972;2023-06-10T07:43:33;100798.69;;;22.78;49.66
54194;BME280;40102;50.906;6.972;2023-06-10T07:45:59;100798.41;;;22.81;49.90
54194;BME280;40102;50.906;6.972;2023-06-10T07:48:28;100797.91;;;22.85;50.13
54194;BME280;40102;50.906;6.972;2023-06-10T07:50:53;100797.59;;;22.88;50.38
54194;BME280;40102;50.906;6.972;2023-06-10T07:53:24;100790.59;;;22.86;50.17
54194;BME280;40102;50.906;6.972;2023-06-10T07:55:49;100793.84;;;22.89;51.02
54194;BME280;40102;50.906;6.972;2023-06-10T07:58:15;100799.84;;;22.93;50.77
54194;BME280;40102;50.906;6.972;2023-06-10T08:00:40;100796.28;;;23.01;50.68
54194;BME280;40102;50.906;6.972;2023-06-10T08:03:05;100800.72;;;23.02;51.71
54194;BME280;40102;50.906;6.972;2023-06-10T08:05:32;100804.84;;;23.06;51.86
54194;BME280;40102;50.906;6.972;2023-06-10T08:07:57;100803.66;;;23.08;52.12
54194;BME280;40102;50.906;6.972;2023-06-10T08:10:22;100799.91;;;23.09;51.69
54194;BME280;40102;50.906;6.972;2023-06-10T08:12:48;100804.34;;;23.10;51.38
54194;BME280;40102;50.906;6.972;2023-06-10T08:15:13;100801.81;;;23.17;50.99
54194;BME280;40102;50.906;6.972;2023-06-10T08:17:38;100806.94;;;23.20;50.89
54194;BME280;40102;50.906;6.972;2023-06-10T08:20:05;100796.72;;;23.22;50.51
54194;BME280;40102;50.906;6.972;2023-06-10T08:22:31;100799.97;;;23.25;51.02
54194;BME280;40102;50.906;6.972;2023-06-10T08:24:56;100797.59;;;23.31;51.41
54194;BME280;40102;50.906;6.972;2023-06-10T08:27:25;100799.13;;;23.33;51.02
54194;BME280;40102;50.906;6.972;2023-06-10T08:29:50;100803.59;;;23.42;51.33
54194;BME280;40102;50.906;6.972;2023-06-10T08:32:15;100801.41;;;23.46;50.01
54194;BME280;40102;50.906;6.972;2023-06-10T08:34:41;100802.94;;;23.48;48.51
54194;BME280;40102;50.906;6.972;2023-06-10T08:37:06;100806.75;;;23.55;49.08
54194;BME280;40102;50.906;6.972;2023-06-10T08:39:31;100804.00;;;23.55;48.79
54194;BME280;40102;50.906;6.972;2023-06-10T08:44:29;100809.50;;;23.64;49.89
54194;BME280;40102;50.906;6.972;2023-06-10T08:46:59;100803.69;;;23.67;50.03
54194;BME280;40102;50.906;6.972;2023-06-10T08:49:26;100800.63;;;23.70;49.08
54194;BME280;40102;50.906;6.972;2023-06-10T08:51:55;100806.59;;;23.73;49.16
54194;BME280;40102;50.906;6.972;2023-06-10T08:54:26;100797.06;;;23.85;51.25
54194;BME280;40102;50.906;6.972;2023-06-10T08:56:54;100800.66;;;23.94;49.49
54194;BME280;40102;50.906;6.972;2023-06-10T08:59:21;100803.72;;;23.99;49.49
54194;BME280;40102;50.906;6.972;2023-06-10T09:01:47;100796.91;;;24.03;49.74
54194;BME280;40102;50.906;6.972;2023-06-10T09:04:13;100795.03;;;24.04;49.70
54194;BME280;40102;50.906;6.972;2023-06-10T09:06:40;100803.22;;;24.04;48.98
54194;BME280;40102;50.906;6.972;2023-06-10T09:09:06;100788.00;;;24.01;48.93
54194;BME280;40102;50.906;6.972;2023-06-10T09:11:32;100799.13;;;24.08;48.77
54194;BME280;40102;50.906;6.972;2023-06-10T09:13:58;100796.03;;;24.11;47.92
54194;BME280;40102;50.906;6.972;2023-06-10T09:16:24;100793.81;;;24.14;49.02
54194;BME280;40102;50.906;6.972;2023-06-10T09:18:50;100793.00;;;24.30;49.00
54194;BME280;40102;50.906;6.972;2023-06-10T09:21:23;100799.13;;;24.48;48.50
54194;BME280;40102;50.906;6.972;2023-06-10T09:23:49;100787.63;;;24.61;49.53
54194;BME280;40102;50.906;6.972;2023-06-10T09:26:14;100793.59;;;24.73;49.12
54194;BME280;40102;50.906;6.972;2023-06-10T09:28:42;100789.66;;;24.75;47.60
54194;BME280;40102;50.906;6.972;2023-06-10T09:31:08;100781.09;;;24.78;47.71
54194;BME280;40102;50.906;6.972;2023-06-10T09:33:38;100794.41;;;24.81;46.95
54194;BME280;40102;50.906;6.972;2023-06-10T09:36:07;100792.03;;;24.78;47.29
54194;BME280;40102;50.906;6.972;2023-06-10T09:38:33;100789.97;;;24.80;47.72
54194;BME280;40102;50.906;6.972;2023-06-10T09:40:59;100786.38;;;24.80;47.57
54194;BME280;40102;50.906;6.972;2023-06-10T09:43:40;100786.22;;;24.81;47.23
54194;BME280;40102;50.906;6.972;2023-06-10T09:46:05;100786.88;;;24.92;47.25
54194;BME280;40102;50.906;6.972;2023-06-10T09:48:34;100785.16;;;24.99;45.74
54194;BME280;40102;50.906;6.972;2023-06-10T09:51:08;100784.28;;;25.06;46.20
54194;BME280;40102;50.906;6.972;2023-06-10T09:53:34;100778.59;;;25.16;47.20
54194;BME280;40102;50.906;6.972;2023-06-10T09:55:59;100776.06;;;25.37;47.00
54194;BME280;40102;50.906;6.972;2023-06-10T09:58:35;100776.03;;;25.45;44.87
54194;BME280;40102;50.906;6.972;2023-06-10T10:01:05;100768.84;;;25.44;45.34
54194;BME280;40102;50.906;6.972;2023-06-10T10:03:30;100772.38;;;25.53;44.91
54194;BME280;40102;50.906;6.972;2023-06-10T10:06:00;100766.38;;;25.58;44.81
54194;BME280;40102;50.906;6.972;2023-06-10T10:08:25;100773.19;;;25.62;44.39
54194;BME280;40102;50.906;6.972;2023-06-10T10:10:51;100777.91;;;25.76;45.02
54194;BME280;40102;50.906;6.972;2023-06-10T10:13:17;100773.47;;;25.75;43.07
54194;BME280;40102;50.906;6.972;2023-06-10T10:15:43;100766.66;;;25.71;43.70
54194;BME280;40102;50.906;6.972;2023-06-10T10:18:11;100773.28;;;25.76;42.86
54194;BME280;40102;50.906;6.972;2023-06-10T10:20:50;100772.13;;;25.94;43.09
54194;BME280;40102;50.906;6.972;2023-06-10T10:23:31;100765.13;;;26.06;42.72
54194;BME280;40102;50.906;6.972;2023-06-10T10:26:00;100766.69;;;26.23;42.67
54194;BME280;40102;50.906;6.972;2023-06-10T10:28:33;100759.75;;;26.35;41.94
54194;BME280;40102;50.906;6.972;2023-06-10T10:31:05;100757.41;;;26.47;41.91
54194;BME280;40102;50.906;6.972;2023-06-10T10:36:01;100763.25;;;26.59;41.11
54194;BME280;40102;50.906;6.972;2023-06-10T10:38:27;100763.94;;;26.61;40.67
54194;BME280;40102;50.906;6.972;2023-06-10T10:40:53;100765.34;;;26.57;41.13
54194;BME280;40102;50.906;6.972;2023-06-10T10:43:21;100762.22;;;26.60;40.97
54194;BME280;40102;50.906;6.972;2023-06-10T10:45:58;100741.59;;;26.64;39.19
54194;BME280;40102;50.906;6.972;2023-06-10T10:48:24;100748.41;;;26.68;38.18
54194;BME280;40102;50.906;6.972;2023-06-10T10:50:56;100750.50;;;26.51;38.28
54194;BME280;40102;50.906;6.972;2023-06-10T10:53:23;100747.47;;;26.46;38.95
54194;BME280;40102;50.906;6.972;2023-06-10T10:56:12;100748.13;;;26.63;39.92
54194;BME280;40102;50.906;6.972;2023-06-10T10:58:38;100737.06;;;26.86;38.80
54194;BME280;40102;50.906;6.972;2023-06-10T11:01:11;100725.72;;;27.03;39.22
54194;BME280;40102;50.906;6.972;2023-06-10T11:03:42;100734.94;;;27.17;39.09
54194;BME280;40102;50.906;6.972;2023-06-10T11:06:14;100726.72;;;27.17;38.79
54194;BME280;40102;50.906;6.972;2023-06-10T11:11:38;100719.41;;;27.24;37.01
54194;BME280;40102;50.906;6.972;2023-06-10T11:14:26;100723.47;;;27.28;36.92
54194;BME280;40102;50.906;6.972;2023-06-10T11:16:57;100730.06;;;27.34;36.62
54194;BME280;40102;50.906;6.972;2023-06-10T11:19:34;100702.41;;;27.35;35.73
54194;BME280;40102;50.906;6.972;2023-06-10T11:22:07;100706.69;;;27.59;35.86
54194;BME280;40102;50.906;6.972;2023-06-10T11:24:33;100707.09;;;27.78;35.61
54194;BME280;40102;50.906;6.972;2023-06-10T11:27:28;100718.56;;;27.81;34.50
54194;BME280;40102;50.906;6.972;2023-06-10T11:32:32;100708.59;;;27.80;34.12
54194;BME280;40102;50.906;6.972;2023-06-10T11:34:58;100694.75;;;27.67;33.68
54194;BME280;40102;50.906;6.972;2023-06-10T11:37:24;100696.56;;;27.60;33.30
54194;BME280;40102;50.906;6.972;2023-06-10T11:39:53;100701.88;;;27.61;33.72
54194;BME280;40102;50.906;6.972;2023-06-10T11:42:19;100706.22;;;27.56;34.25
54194;BME280;40102;50.906;6.972;2023-06-10T11:44:53;100686.34;;;27.32;34.26
54194;BME280;40102;50.906;6.972;2023-06-10T11:47:19;100701.44;;;27.22;33.70
54194;BME280;40102;50.906;6.972;2023-06-10T11:49:45;100692.91;;;27.17;33.99
54194;BME280;40102;50.906;6.972;2023-06-10T11:52:11;100684.16;;;27.06;33.66
54194;BME280;40102;50.906;6.972;2023-06-10T11:54:38;100694.56;;;27.11;32.80
54194;BME280;40102;50.906;6.972;2023-06-10T11:57:03;100674.34;;;27.19;32.44
54194;BME280;40102;50.906;6.972;2023-06-10T11:59:30;100692.88;;;27.53;32.41
54194;BME280;40102;50.906;6.972;2023-06-10T12:01:56;100674.31;;;27.55;32.54
54194;BME280;40102;50.906;6.972;2023-06-10T12:04:21;100676.75;;;27.64;32.33
54194;BME280;40102;50.906;6.972;2023-06-10T12:06:52;100686.88;;;27.85;32.37
54194;BME280;40102;50.906;6.972;2023-06-10T12:09:25;100683.47;;;27.83;31.79
54194;BME280;40102;50.906;6.972;2023-06-10T12:12:04;100689.38;;;27.80;31.80
54194;BME280;40102;50.906;6.972;2023-06-10T12:17:15;100680.97;;;27.88;32.17
54194;BME280;40102;50.906;6.972;2023-06-10T12:19:40;100678.19;;;28.10;31.71
54194;BME280;40102;50.906;6.972;2023-06-10T12:22:05;100677.25;;;28.24;31.20
54194;BME280;40102;50.906;6.972;2023-06-10T12:24:31;100674.47;;;28.52;31.30
54194;BME280;40102;50.906;6.972;2023-06-10T12:26:56;100674.72;;;28.57;31.29
54194;BME280;40102;50.906;6.972;2023-06-10T12:29:23;100679.84;;;28.66;30.94
54194;BME280;40102;50.906;6.972;2023-06-10T12:32:03;100679.53;;;28.89;31.22
54194;BME280;40102;50.906;6.972;2023-06-10T12:34:38;100680.84;;;29.00;31.09
54194;BME280;40102;50.906;6.972;2023-06-10T12:37:05;100677.03;;;29.01;30.42
54194;BME280;40102;50.906;6.972;2023-06-10T12:39:32;100675.38;;;29.13;28.94
54194;BME280;40102;50.906;6.972;2023-06-10T12:42:12;100665.25;;;29.20;28.91
54194;BME280;40102;50.906;6.972;2023-06-10T12:44:40;100659.28;;;29.10;29.40
54194;BME280;40102;50.906;6.972;2023-06-10T12:47:10;100672.03;;;29.24;28.67
54194;BME280;40102;50.906;6.972;2023-06-10T12:49:37;100676.50;;;29.39;29.16
54194;BME280;40102;50.906;6.972;2023-06-10T12:52:25;100669.13;;;29.46;28.36
54194;BME280;40102;50.906;6.972;2023-06-10T12:54:53;100659.59;;;29.48;27.38
54194;BME280;40102;50.906;6.972;2023-06-10T12:57:19;100669.38;;;29.64;28.25
54194;BME280;40102;50.906;6.972;2023-06-10T12:59:44;100675.31;;;29.68;27.38
54194;BME280;40102;50.906;6.972;2023-06-10T13:02:16;100657.72;;;29.75;27.80